Time;durP1;ratioP1;P1;durP2;ratioP2;P2;SDS_P1;SDS_P2;PMS_P1;PMS_P2;Temp;Humidity;BMP_temperature;BMP_pressure;BME280_temperature;BME280_humidity;BME280_pressure;Samples;Min_cycle;Max_cycle;Signal;HPM_P1;HPM_P2
2022/06/21 00:01:32;;;;;;;12.75;3.75;;;14.00;99.90;;;;;;5035717;28;20046;-78
2022/06/21 00:03:58;;;;;;;13.93;3.60;;;14.00;99.90;;;;;;5034355;28;20065;-79
2022/06/21 00:06:26;;;;;;;15.68;3.75;;;14.00;99.90;;;;;;5035685;28;20045;-78
2022/06/21 00:08:52;;;;;;;12.43;3.88;;;14.10;99.90;;;;;;5035532;28;20052;-78
2022/06/21 00:11:26;;;;;;;9.75;3.63;;;14.00;99.90;;;;;;5035517;28;20045;-78
2022/06/21 00:13:52;;;;;;;14.63;4.00;;;14.00;99.90;;;;;;5034073;28;20099;-79
2022/06/21 00:16:19;;;;;;;15.18;3.90;;;14.00;99.90;;;;;;5034066;28;20049;-79
2022/06/21 00:18:46;;;;;;;20.48;4.10;;;14.10;99.90;;;;;;5035445;28;20128;-79
2022/06/21 00:21:23;;;;;;;9.60;3.90;;;14.00;99.90;;;;;;5035205;28;20041;-79
2022/06/21 00:23:50;;;;;;;12.07;4.03;;;14.00;99.90;;;;;;5034322;28;20104;-78
2022/06/21 00:26:17;;;;;;;14.68;4.28;;;14.00;99.90;;;;;;5035505;28;20125;-79
2022/06/21 00:28:42;;;;;;;11.43;3.50;;;14.00;99.90;;;;;;5033772;28;20053;-79
2022/06/21 00:31:24;;;;;;;16.52;3.70;;;14.00;99.90;;;;;;5035101;28;20049;-79
2022/06/21 00:33:50;;;;;;;15.18;4.65;;;14.00;99.90;;;;;;5034895;28;20370;-79
2022/06/21 00:36:23;;;;;;;11.88;3.95;;;13.90;99.90;;;;;;5034993;28;20049;-79
2022/06/21 00:38:50;;;;;;;17.05;4.05;;;14.00;99.90;;;;;;5035134;28;20051;-79
2022/06/21 00:41:19;;;;;;;14.70;3.80;;;14.00;99.90;;;;;;5034711;28;20049;-79
2022/06/21 00:43:50;;;;;;;11.88;3.53;;;14.00;99.90;;;;;;5033337;28;20054;-79
2022/06/21 00:46:29;;;;;;;13.52;4.28;;;14.00;99.90;;;;;;5034978;28;20098;-79
2022/06/21 00:48:55;;;;;;;13.30;3.80;;;14.00;99.90;;;;;;5034768;28;20041;-79
2022/06/21 00:51:35;;;;;;;12.18;4.20;;;14.00;99.90;;;;;;5034805;28;20124;-79
2022/06/21 00:54:11;;;;;;;11.85;4.25;;;14.00;99.90;;;;;;5033825;28;20127;-79
2022/06/21 00:56:42;;;;;;;14.68;4.38;;;14.10;99.90;;;;;;5034727;28;20048;-79
2022/06/21 00:59:19;;;;;;;14.00;4.38;;;14.00;99.90;;;;;;5034755;28;20053;-79
2022/06/21 01:01:46;;;;;;;11.10;4.03;;;14.00;99.90;;;;;;5033682;28;20452;-79
2022/06/21 01:04:39;;;;;;;11.60;3.95;;;14.00;99.90;;;;;;5034589;28;20045;-79
2022/06/21 01:07:08;;;;;;;5.63;3.88;;;14.00;99.90;;;;;;5026156;28;20076;-79
2022/06/21 01:09:49;;;;;;;8.15;4.13;;;14.00;99.90;;;;;;5034360;28;20041;-79
2022/06/21 01:12:24;;;;;;;10.25;4.60;;;14.00;99.90;;;;;;5034277;28;20085;-79
2022/06/21 01:15:01;;;;;;;11.27;4.07;;;14.00;99.90;;;;;;5034396;28;20041;-79
2022/06/21 01:17:30;;;;;;;15.60;5.03;;;13.90;99.90;;;;;;5033072;28;20157;-79
2022/06/21 01:19:59;;;;;;;12.20;4.93;;;13.90;99.90;;;;;;5033274;28;20045;-79
2022/06/21 01:22:40;;;;;;;10.43;4.60;;;13.90;99.90;;;;;;5033029;28;20045;-79
2022/06/21 01:25:20;;;;;;;14.90;4.97;;;13.80;99.90;;;;;;5034330;28;20045;-79
2022/06/21 01:27:46;;;;;;;14.23;5.88;;;13.80;99.90;;;;;;5034197;28;20061;-79
2022/06/21 01:30:12;;;;;;;17.08;5.75;;;13.80;99.90;;;;;;5034028;28;20473;-79
2022/06/21 01:32:38;;;;;;;10.27;5.22;;;13.80;99.90;;;;;;5033179;28;20064;-79
2022/06/21 01:35:11;;;;;;;17.75;5.55;;;13.90;99.90;;;;;;5032713;28;20045;-79
2022/06/21 01:37:38;;;;;;;11.20;4.80;;;13.80;99.90;;;;;;5034276;28;20052;-79
2022/06/21 01:40:17;;;;;;;15.77;5.00;;;13.90;99.90;;;;;;5032647;28;20050;-79
2022/06/21 01:42:47;;;;;;;12.90;5.10;;;13.90;99.90;;;;;;5034312;28;20072;-78
2022/06/21 01:45:20;;;;;;;11.15;5.28;;;13.90;99.90;;;;;;5051481;28;20057;-79
2022/06/21 01:48:13;;;;;;;18.30;5.80;;;13.90;99.90;;;;;;5053605;28;20559;-79
2022/06/21 01:50:42;;;;;;;14.55;5.55;;;14.00;99.90;;;;;;5035615;28;20554;-79
2022/06/21 01:53:09;;;;;;;14.13;4.80;;;13.90;99.90;;;;;;5053787;28;20107;-79
2022/06/21 01:55:55;;;;;;;14.25;5.35;;;13.90;99.90;;;;;;5053656;28;20435;-79
2022/06/21 01:58:26;;;;;;;9.48;4.47;;;13.80;99.90;;;;;;5035673;28;20496;-79
2022/06/21 02:00:59;;;;;;;13.98;5.28;;;13.80;99.90;;;;;;5035652;28;20041;-79
2022/06/21 02:03:33;;;;;;;;;;;13.80;99.90;;;;;;5054000;28;20040;-79
2022/06/21 02:06:11;;;;;;;15.40;5.07;;;13.70;99.90;;;;;;5053536;28;19968;-79
2022/06/21 02:08:48;;;;;;;22.73;5.65;;;13.70;99.90;;;;;;5053513;28;20083;-79
2022/06/21 02:11:43;;;;;;;19.80;5.68;;;13.70;99.90;;;;;;5035585;28;20098;-79
2022/06/21 02:14:31;;;;;;;12.05;5.18;;;13.70;99.90;;;;;;5021548;28;20118;-79
2022/06/21 02:17:08;;;;;;;16.50;5.25;;;13.60;99.90;;;;;;5057396;28;20385;-79
2022/06/21 02:19:34;;;;;;;14.48;4.93;;;13.60;99.90;;;;;;5040338;28;20040;-79
2022/06/21 02:21:59;;;;;;;9.32;4.78;;;13.50;99.90;;;;;;5039943;28;20439;-79
2022/06/21 02:24:28;;;;;;;11.73;5.13;;;13.60;99.90;;;;;;5039395;28;20117;-79
2022/06/21 02:26:55;;;;;;;15.02;5.85;;;13.60;99.90;;;;;;5057878;28;20095;-79
2022/06/21 02:29:20;;;;;;;17.13;5.65;;;13.70;99.90;;;;;;5039531;28;20128;-79
2022/06/21 02:31:46;;;;;;;13.50;5.40;;;13.70;99.90;;;;;;5057365;28;20120;-78
2022/06/21 02:34:28;;;;;;;10.98;5.25;;;13.70;99.90;;;;;;5057302;28;20049;-79
2022/06/21 02:36:57;;;;;;;17.70;5.90;;;13.70;99.90;;;;;;5057272;28;20036;-79
2022/06/21 02:39:26;;;;;;;11.65;5.65;;;13.70;99.90;;;;;;5057129;28;20127;-79
2022/06/21 02:42:09;;;;;;;12.48;5.43;;;13.70;99.90;;;;;;5057141;28;20393;-79
2022/06/21 02:44:40;;;;;;;13.80;5.35;;;13.70;99.90;;;;;;5056822;28;20547;-79
2022/06/21 02:47:14;;;;;;;13.43;5.23;;;13.70;99.90;;;;;;5057151;28;20202;-79
2022/06/21 02:50:06;;;;;;;11.30;6.38;;;13.60;99.90;;;;;;5057091;28;20051;-79
2022/06/21 02:52:37;;;;;;;12.05;5.57;;;13.70;99.90;;;;;;5052419;28;20049;-79
2022/06/21 02:55:41;;;;;;;17.88;7.32;;;13.80;99.90;;;;;;5056855;28;20033;-79
2022/06/21 02:58:49;;;;;;;16.02;6.70;;;13.80;99.90;;;;;;5056635;28;20075;-79
2022/06/21 03:01:23;;;;;;;14.63;5.63;;;13.80;99.90;;;;;;5038188;28;20064;-79
2022/06/21 03:03:50;;;;;;;13.05;5.38;;;13.80;99.90;;;;;;5038159;28;20045;-79
2022/06/21 03:06:18;;;;;;;13.70;5.90;;;13.70;99.90;;;;;;5037925;28;20049;-79
2022/06/21 03:08:52;;;;;;;15.30;5.78;;;13.70;99.90;;;;;;5036974;28;20052;-79
2022/06/21 03:11:20;;;;;;;14.82;5.97;;;13.70;99.90;;;;;;5056029;28;20044;-79
2022/06/21 03:13:45;;;;;;;15.63;5.78;;;13.70;99.90;;;;;;5038465;28;20044;-79
2022/06/21 03:16:16;;;;;;;19.60;6.35;;;13.70;99.90;;;;;;5056530;28;20040;-79
2022/06/21 03:18:51;;;;;;;11.15;5.85;;;13.80;99.90;;;;;;5056220;28;20497;-79
2022/06/21 03:21:24;;;;;;;12.52;5.88;;;13.80;99.90;;;;;;5056429;28;20049;-79
2022/06/21 03:23:50;;;;;;;17.80;6.60;;;13.70;99.90;;;;;;5056318;28;20041;-79
2022/06/21 03:26:16;;;;;;;16.23;5.90;;;13.70;99.90;;;;;;5037787;28;20040;-79
2022/06/21 03:28:45;;;;;;;16.25;6.55;;;13.70;99.90;;;;;;5055871;28;20424;-79
2022/06/21 03:31:24;;;;;;;17.45;6.25;;;13.70;99.90;;;;;;5038194;28;20053;-79
2022/06/21 03:34:00;;;;;;;12.63;6.40;;;13.60;99.90;;;;;;5038353;28;20044;-79
2022/06/21 03:36:26;;;;;;;13.07;6.30;;;13.70;99.90;;;;;;5056266;28;20121;-79
2022/06/21 03:39:21;;;;;;;18.85;6.57;;;13.70;99.90;;;;;;5056101;28;20037;-79
2022/06/21 03:42:08;;;;;;;18.45;6.85;;;13.60;99.90;;;;;;5038155;28;20481;-79
2022/06/21 03:44:41;;;;;;;13.80;6.03;;;13.50;99.90;;;;;;5055631;28;20129;-79
2022/06/21 03:47:16;;;;;;;16.67;6.47;;;13.60;99.90;;;;;;5038030;28;20041;-79
2022/06/21 03:50:00;;;;;;;14.32;6.82;;;13.50;99.90;;;;;;5055852;28;20055;-79
2022/06/21 03:52:49;;;;;;;13.63;6.65;;;13.50;99.90;;;;;;5055805;28;20037;-79
2022/06/21 03:55:36;;;;;;;16.13;5.88;;;13.50;99.90;;;;;;5037879;28;20057;-79
2022/06/21 03:58:37;;;;;;;16.95;7.28;;;13.60;99.90;;;;;;5055620;28;20041;-79
2022/06/21 04:01:16;;;;;;;15.98;6.75;;;13.60;99.90;;;;;;5037618;28;20128;-79
2022/06/21 04:04:01;;;;;;;18.10;6.65;;;13.60;99.90;;;;;;5055411;28;20480;-79
2022/06/21 04:06:44;;;;;;;17.30;7.65;;;13.60;99.90;;;;;;5055535;28;20045;-79
2022/06/21 04:09:36;;;;;;;21.48;7.80;;;13.70;99.90;;;;;;5037499;28;20045;-79
2022/06/21 04:12:12;;;;;;;23.17;7.07;;;13.60;99.90;;;;;;5055639;28;20539;-79
2022/06/21 04:14:50;;;;;;;13.80;7.32;;;13.70;99.90;;;;;;5055206;28;20121;-79
2022/06/21 04:17:40;;;;;;;14.90;7.00;;;13.80;99.90;;;;;;5037229;28;20381;-79
2022/06/21 04:20:26;;;;;;;15.23;8.35;;;13.90;99.90;;;;;;5037476;28;20508;-79
2022/06/21 04:23:08;;;;;;;15.75;7.38;;;14.00;99.90;;;;;;5037369;28;20083;-79
2022/06/21 04:25:38;;;;;;;18.92;9.13;;;14.00;99.90;;;;;;5054925;28;20091;-79
2022/06/21 04:28:24;;;;;;;20.40;9.63;;;14.10;99.90;;;;;;5055061;28;20060;-79
2022/06/21 04:31:17;;;;;;;19.98;9.23;;;14.10;99.90;;;;;;5037029;28;20083;-79
2022/06/21 04:33:55;;;;;;;20.77;9.65;;;14.20;99.90;;;;;;5037206;28;20055;-80
2022/06/21 04:36:47;;;;;;;17.23;9.48;;;14.10;99.90;;;;;;5036151;28;20504;-79
2022/06/21 04:39:36;;;;;;;32.43;12.50;;;14.10;99.90;;;;;;5054959;28;20044;-79
2022/06/21 04:42:10;;;;;;;24.52;11.90;;;14.20;99.90;;;;;;5036823;28;20045;-78
2022/06/21 04:44:55;;;;;;;35.08;12.43;;;14.40;99.90;;;;;;5054574;28;20088;-78
2022/06/21 04:47:28;;;;;;;23.65;12.25;;;14.50;99.90;;;;;;5036634;28;20129;-79
2022/06/21 04:50:02;;;;;;;30.25;12.60;;;14.60;99.90;;;;;;5054707;28;20098;-79
2022/06/21 04:52:34;;;;;;;27.25;12.15;;;14.70;99.90;;;;;;5036587;28;20045;-79
2022/06/21 04:55:02;;;;;;;26.03;11.43;;;14.70;99.90;;;;;;5054680;28;20045;-79
2022/06/21 04:57:30;;;;;;;23.77;11.50;;;14.80;99.90;;;;;;5054517;28;20112;-78
2022/06/21 05:00:00;;;;;;;27.77;10.68;;;14.70;99.90;;;;;;5036445;28;20499;-78
2022/06/21 05:02:35;;;;;;;22.17;10.63;;;14.90;99.90;;;;;;5054468;28;20053;-79
2022/06/21 05:05:25;;;;;;;21.98;10.02;;;14.90;99.90;;;;;;5036395;28;20076;-78
2022/06/21 05:08:06;;;;;;;19.52;9.55;;;15.10;99.90;;;;;;5036279;28;20053;-79
2022/06/21 05:10:40;;;;;;;24.15;10.20;;;15.20;99.90;;;;;;5054035;28;20466;-79
2022/06/21 05:13:13;;;;;;;21.58;10.13;;;15.40;99.90;;;;;;5054262;28;20037;-79
2022/06/21 05:15:41;;;;;;;21.73;10.32;;;15.30;99.90;;;;;;5036418;28;20111;-79
2022/06/21 05:18:14;;;;;;;18.05;8.32;;;15.30;99.90;;;;;;5053881;28;20125;-79
2022/06/21 05:20:51;;;;;;;20.95;8.95;;;15.30;99.90;;;;;;5054191;28;20095;-79
2022/06/21 05:23:18;;;;;;;24.58;9.13;;;15.40;99.90;;;;;;5054030;28;20480;-79
2022/06/21 05:25:45;;;;;;;18.42;9.50;;;15.60;99.90;;;;;;5053992;28;20037;-80
2022/06/21 05:28:13;;;;;;;17.95;8.48;;;15.60;99.90;;;;;;5035838;28;20052;-80
2022/06/21 05:31:03;;;;;;;30.25;9.50;;;15.70;99.90;;;;;;5053991;28;20041;-80
2022/06/21 05:33:45;;;;;;;24.15;10.20;;;15.90;99.90;;;;;;5053960;28;20033;-80
2022/06/21 05:36:15;;;;;;;26.75;9.70;;;16.00;99.90;;;;;;5053803;28;20044;-80
2022/06/21 05:38:58;;;;;;;23.70;9.38;;;16.20;99.90;;;;;;5053638;28;20048;-80
2022/06/21 05:41:31;;;;;;;20.73;8.73;;;16.40;99.90;;;;;;5053682;28;20527;-80
2022/06/21 05:44:01;;;;;;;22.38;9.07;;;16.50;99.90;;;;;;5053547;28;20124;-80
2022/06/21 05:46:31;;;;;;;22.15;8.52;;;16.50;99.90;;;;;;5035569;28;20057;-80
2022/06/21 05:48:58;;;;;;;18.23;8.88;;;16.60;99.90;;;;;;5035326;28;20040;-79
2022/06/21 05:51:32;;;;;;;26.20;10.20;;;16.60;99.90;;;;;;5053400;28;20120;-80
2022/06/21 05:54:06;;;;;;;21.75;8.57;;;16.70;99.90;;;;;;5053655;28;20040;-80
2022/06/21 05:56:34;;;;;;;20.23;8.85;;;16.80;99.90;;;;;;5035645;28;20059;-80
2022/06/21 05:59:07;;;;;;;16.48;8.63;;;16.70;99.90;;;;;;5035752;28;20089;-80
2022/06/21 06:01:54;;;;;;;23.30;10.10;;;16.50;99.90;;;;;;5053253;28;20049;-79
2022/06/21 06:04:25;;;;;;;14.55;8.88;;;16.20;99.90;;;;;;5053305;28;20053;-80
2022/06/21 06:06:53;;;;;;;26.08;9.52;;;16.20;99.90;;;;;;5053565;28;20040;-80
2022/06/21 06:09:26;;;;;;;28.77;10.70;;;16.00;99.90;;;;;;5035284;28;20045;-79
2022/06/21 06:12:03;;;;;;;27.48;9.57;;;16.10;99.90;;;;;;5035783;28;20391;-79
2022/06/21 06:14:50;;;;;;;17.95;8.90;;;15.90;99.90;;;;;;5035540;28;20053;-79
2022/06/21 06:17:42;;;;;;;19.35;9.48;;;15.90;99.90;;;;;;5053390;28;20124;-79
2022/06/21 06:20:19;;;;;;;23.63;11.23;;;15.80;99.90;;;;;;5053171;28;20120;-79
2022/06/21 06:22:54;;;;;;;24.02;11.15;;;15.70;99.90;;;;;;5053135;28;20489;-79
2022/06/21 06:25:43;;;;;;;28.20;11.68;;;15.70;99.90;;;;;;5053246;28;20045;-79
2022/06/21 06:28:24;;;;;;;24.80;11.23;;;15.70;99.90;;;;;;5035438;28;20057;-79
2022/06/21 06:30:59;;;;;;;23.70;10.57;;;15.70;99.90;;;;;;5053384;28;20202;-79
2022/06/21 06:33:55;;;;;;;27.92;10.82;;;15.80;99.90;;;;;;5035365;28;20388;-80
2022/06/21 06:36:40;;;;;;;24.92;10.93;;;15.80;99.90;;;;;;5034950;28;20102;-80
2022/06/21 06:39:19;;;;;;;25.98;10.60;;;15.80;99.90;;;;;;5064413;28;20551;-79
2022/06/21 06:42:12;;;;;;;20.23;10.88;;;15.90;99.90;;;;;;5073104;28;20120;-79
2022/06/21 06:44:48;;;;;;;18.53;10.00;;;15.90;99.90;;;;;;5072833;28;20510;-78
2022/06/21 06:47:28;;;;;;;20.45;9.68;;;15.90;99.90;;;;;;5073095;28;20365;-78
2022/06/21 06:50:16;;;;;;;23.85;9.80;;;15.80;99.90;;;;;;5072978;28;20045;-79
2022/06/21 06:53:01;;;;;;;25.60;10.30;;;15.90;99.90;;;;;;5072459;28;20236;-78
2022/06/21 06:55:43;;;;;;;21.20;10.32;;;16.10;99.90;;;;;;5052851;28;20052;-79
2022/06/21 06:58:20;;;;;;;22.17;10.95;;;16.40;99.90;;;;;;5071299;28;20101;-79
2022/06/21 07:01:00;;;;;;;22.33;9.82;;;16.80;99.90;;;;;;5056107;28;20040;-79
2022/06/21 07:03:30;;;;;;;22.33;10.77;;;17.00;99.90;;;;;;5076618;28;20127;-80
2022/06/21 07:06:04;;;;;;;21.17;11.10;;;17.20;99.90;;;;;;5075629;28;20033;-80
2022/06/21 07:08:53;;;;;;;22.73;10.50;;;17.10;99.90;;;;;;5076616;28;20128;-80
2022/06/21 07:11:28;;;;;;;25.70;10.18;;;17.20;99.90;;;;;;5076614;28;20102;-79
2022/06/21 07:13:54;;;;;;;24.08;10.68;;;17.50;99.90;;;;;;5075639;28;20485;-79
2022/06/21 07:16:24;;;;;;;24.77;10.23;;;17.50;99.90;;;;;;5076034;28;20108;-79
2022/06/21 07:18:54;;;;;;;14.77;10.35;;;17.30;99.90;;;;;;5076507;28;20044;-79
2022/06/21 07:21:22;;;;;;;20.88;9.07;;;17.50;99.90;;;;;;5074269;28;20040;-79
2022/06/21 07:23:52;;;;;;;20.63;9.90;;;17.60;99.90;;;;;;5056722;28;20048;-79
2022/06/21 07:26:27;;;;;;;19.48;10.32;;;17.60;99.90;;;;;;5075955;28;20050;-79
2022/06/21 07:28:55;;;;;;;24.25;10.60;;;17.90;99.90;;;;;;5058237;28;20093;-79
2022/06/21 07:31:31;;;;;;;15.77;9.75;;;18.10;99.90;;;;;;5058312;28;20128;-79
2022/06/21 07:34:00;;;;;;;22.00;10.32;;;18.30;99.90;;;;;;5058344;28;20052;-79
2022/06/21 07:36:43;;;;;;;20.83;10.40;;;18.40;99.90;;;;;;5058302;28;20040;-78
2022/06/21 07:39:37;;;;;;;19.95;11.30;;;18.70;99.90;;;;;;5058027;28;20049;-79
2022/06/21 07:42:15;;;;;;;20.30;9.43;;;18.60;99.90;;;;;;5056982;28;20473;-78
2022/06/21 07:44:46;;;;;;;16.60;8.80;;;18.40;99.90;;;;;;5054422;28;20048;-78
2022/06/21 07:47:23;;;;;;;19.30;8.75;;;18.80;99.90;;;;;;5054685;28;20084;-79
2022/06/21 07:49:58;;;;;;;19.42;9.48;;;18.90;99.90;;;;;;5055628;28;20134;-79
2022/06/21 07:52:33;;;;;;;23.98;11.23;;;19.20;99.90;;;;;;5054707;28;20447;-79
2022/06/21 07:55:47;;;;;;;24.95;11.25;;;19.20;99.90;;;;;;5054550;28;20057;-79
2022/06/21 07:58:30;;;;;;;22.88;10.93;;;19.10;99.90;;;;;;5032008;28;20053;-79
2022/06/21 08:06:42;;;;;;;19.23;9.98;;;19.50;99.90;;;;;;5053981;28;20393;-79
2022/06/21 08:09:15;;;;;;;24.00;12.55;;;19.30;99.90;;;;;;5055494;28;20044;-79
2022/06/21 08:11:42;;;;;;;;;;;19.30;99.90;;;;;;5055531;28;20049;-79
2022/06/21 08:14:09;;;;;;;20.77;12.27;;;19.30;99.90;;;;;;5055317;28;20322;-79
2022/06/21 08:16:51;;;;;;;22.30;11.50;;;18.90;99.90;;;;;;5055179;28;20051;-79
2022/06/21 08:19:23;;;;;;;25.95;12.02;;;18.90;99.90;;;;;;5055428;28;20045;-79
2022/06/21 08:21:58;;;;;;;25.73;12.13;;;19.20;99.90;;;;;;5055281;28;20049;-79
2022/06/21 08:24:34;;;;;;;16.70;11.02;;;19.30;99.90;;;;;;5055357;28;20045;-79
2022/06/21 08:27:08;;;;;;;23.80;11.07;;;19.30;99.90;;;;;;5053724;28;20052;-79
2022/06/21 08:29:42;;;;;;;26.13;11.43;;;18.90;99.90;;;;;;5053887;28;20513;-79
2022/06/21 08:32:20;;;;;;;19.63;11.18;;;19.30;99.90;;;;;;5055211;28;20045;-79
2022/06/21 08:34:48;;;;;;;22.70;11.77;;;19.40;99.90;;;;;;5053931;28;20083;-79
2022/06/21 08:37:24;;;;;;;18.65;10.73;;;19.60;99.90;;;;;;5053797;28;20099;-79
2022/06/21 08:39:55;;;;;;;18.00;11.00;;;19.90;99.90;;;;;;5055018;28;20049;-79
2022/06/21 08:42:54;;;;;;;23.05;10.52;;;20.30;99.90;;;;;;5054640;28;20559;-79
2022/06/21 08:45:48;;;;;;;17.95;9.43;;;20.60;99.90;;;;;;5053320;28;20052;-79
2022/06/21 08:48:45;;;;;;;26.63;10.27;;;20.80;99.90;;;;;;5053522;28;20053;-79
2022/06/21 08:51:41;;;;;;;19.75;10.55;;;20.70;99.90;;;;;;5053320;28;20434;-79
2022/06/21 08:54:31;;;;;;;21.50;10.88;;;20.40;99.90;;;;;;5054766;28;20051;-79
2022/06/21 08:57:22;;;;;;;16.13;9.18;;;20.40;99.90;;;;;;5054412;28;20427;-79
2022/06/21 09:00:01;;;;;;;17.15;8.52;;;20.10;99.90;;;;;;5054476;28;20045;-79
2022/06/21 09:02:52;;;;;;;21.98;10.13;;;19.80;99.90;;;;;;5054593;28;20045;-79
2022/06/21 09:05:27;;;;;;;17.60;9.77;;;19.80;99.90;;;;;;5053248;28;20053;-79
2022/06/21 09:08:33;;;;;;;13.40;8.15;;;20.00;99.90;;;;;;5053175;28;20057;-79
2022/06/21 09:11:08;;;;;;;21.65;9.07;;;20.20;99.90;;;;;;5054416;28;20056;-79
2022/06/21 09:14:10;;;;;;;12.75;7.30;;;20.30;99.90;;;;;;5053065;28;20049;-79
2022/06/21 09:16:51;;;;;;;20.45;8.35;;;20.60;99.90;;;;;;5054257;28;20049;-79
2022/06/21 09:19:42;;;;;;;18.52;8.70;;;20.80;99.90;;;;;;5054253;28;20041;-79
2022/06/21 09:22:29;;;;;;;18.92;9.40;;;21.20;99.90;;;;;;5052626;28;20048;-79
2022/06/21 09:25:30;;;;;;;16.08;9.48;;;21.40;99.90;;;;;;5054094;28;20099;-79
2022/06/21 09:28:04;;;;;;;17.10;9.18;;;21.60;99.90;;;;;;5053820;28;20484;-79
2022/06/21 09:30:47;;;;;;;19.95;9.65;;;21.60;99.90;;;;;;5053710;28;20451;-79
2022/06/21 09:33:31;;;;;;;17.35;9.27;;;21.40;99.90;;;;;;5053794;28;20458;-79
2022/06/21 09:36:10;;;;;;;16.40;8.65;;;21.30;99.90;;;;;;5053738;28;20048;-79
2022/06/21 09:39:11;;;;;;;17.95;8.10;;;21.30;99.90;;;;;;5054008;28;20087;-79
2022/06/21 09:41:36;;;;;;;13.93;7.05;;;21.60;99.90;;;;;;5035286;28;20048;-79
2022/06/21 09:44:25;;;;;;;16.98;7.85;;;22.00;99.90;;;;;;5052291;28;20122;-79
2022/06/21 09:46:55;;;;;;;19.52;8.38;;;21.90;99.90;;;;;;5053781;28;20128;-79
2022/06/21 09:49:29;;;;;;;20.23;8.23;;;21.70;99.90;;;;;;5053518;28;20095;-79
2022/06/21 09:52:04;;;;;;;24.63;8.57;;;21.70;99.90;;;;;;5052237;28;20179;-79
2022/06/21 09:54:37;;;;;;;22.10;8.35;;;21.60;99.90;;;;;;5053634;28;20037;-79
2022/06/21 09:57:40;;;;;;;16.83;8.30;;;21.80;99.90;;;;;;5053659;28;20053;-79
2022/06/21 10:00:16;;;;;;;17.05;8.25;;;22.20;99.90;;;;;;5049371;28;20049;-79
2022/06/21 10:02:58;;;;;;;17.30;9.38;;;22.30;99.90;;;;;;5052123;28;20399;-80
2022/06/21 10:06:03;;;;;;;22.63;7.28;;;22.50;99.90;;;;;;5053445;28;20102;-80
2022/06/21 10:08:42;;;;;;;18.73;8.90;;;22.40;99.90;;;;;;5034973;28;20555;-79
2022/06/21 10:11:21;;;;;;;15.52;8.10;;;21.90;99.90;;;;;;5053530;28;20048;-79
2022/06/21 10:14:17;;;;;;;17.55;9.13;;;22.30;99.90;;;;;;5052283;28;20072;-80
2022/06/21 10:17:13;;;;;;;19.42;7.57;;;22.20;99.90;;;;;;5053499;28;20132;-79
2022/06/21 10:19:57;;;;;;;17.13;6.95;;;22.30;99.90;;;;;;5053244;28;20404;-80
2022/06/21 10:22:36;;;;;;;12.63;7.03;;;22.70;99.90;;;;;;5053384;28;20037;-80
2022/06/21 10:25:02;;;;;;;17.40;8.10;;;22.80;99.90;;;;;;5053443;28;20044;-80
2022/06/21 10:28:16;;;;;;;16.40;8.63;;;23.10;99.90;;;;;;5053307;28;20090;-80
2022/06/21 10:30:48;;;;;;;30.98;8.32;;;23.00;99.90;;;;;;4992923;28;20061;-80
2022/06/21 10:33:38;;;;;;;13.60;7.47;;;22.90;99.90;;;;;;5052066;28;20049;-80
2022/06/21 10:36:38;;;;;;;20.15;8.18;;;23.30;99.90;;;;;;5055827;28;20052;-80
2022/06/21 10:39:41;;;;;;;13.05;7.93;;;22.90;99.90;;;;;;5057342;28;20045;-80
2022/06/21 10:42:49;;;;;;;19.52;8.02;;;23.10;99.90;;;;;;5056056;28;20091;-80
2022/06/21 10:45:35;;;;;;;16.63;7.75;;;22.90;99.90;;;;;;5074921;28;20055;-80
2022/06/21 10:48:21;;;;;;;17.10;8.30;;;23.10;99.90;;;;;;5077163;28;20090;-80
2022/06/21 10:50:56;;;;;;;13.70;7.80;;;23.20;99.90;;;;;;5058927;28;20399;-80
2022/06/21 10:53:47;;;;;;;20.00;8.32;;;23.50;99.90;;;;;;5059376;28;20045;-80
2022/06/21 11:03:04;;;;;;;19.95;8.35;;;23.40;99.90;;;;;;5058594;28;20181;-80
2022/06/21 11:05:53;;;;;;;20.50;8.32;;;23.50;99.90;;;;;;5076767;28;20079;-80
2022/06/21 11:08:21;;;;;;;18.83;7.60;;;23.40;99.90;;;;;;5076682;28;20072;-80
2022/06/21 11:10:55;;;;;;;20.90;8.68;;;23.50;99.90;;;;;;5076378;28;20048;-80
2022/06/21 11:13:25;;;;;;;13.65;8.00;;;23.40;99.90;;;;;;5058889;28;20074;-80
2022/06/21 11:16:10;;;;;;;15.60;7.70;;;23.70;99.90;;;;;;5076258;28;20495;-80
2022/06/21 11:18:39;;;;;;;14.40;8.32;;;23.90;99.90;;;;;;5076594;28;20044;-80
2022/06/21 11:21:40;;;;;;;14.68;7.53;;;24.00;99.90;;;;;;5058517;28;20426;-80
2022/06/21 11:24:30;;;;;;;19.75;7.88;;;24.10;99.90;;;;;;5076205;28;20123;-80
2022/06/21 11:27:13;;;;;;;20.98;7.32;;;24.10;99.90;;;;;;5058218;28;20051;-80
2022/06/21 11:29:47;;;;;;;16.30;7.15;;;24.60;99.90;;;;;;5058151;28;20124;-80
2022/06/21 11:32:44;;;;;;;15.13;7.65;;;24.70;99.90;;;;;;5058137;28;20119;-80
2022/06/21 11:35:13;;;;;;;14.35;7.20;;;24.80;99.90;;;;;;5058326;28;20083;-80
2022/06/21 11:37:56;;;;;;;18.05;8.88;;;24.60;99.90;;;;;;5076142;28;20062;-79
2022/06/21 11:40:40;;;;;;;16.30;8.40;;;24.80;99.90;;;;;;5058194;28;20395;-80
2022/06/21 11:43:32;;;;;;;19.38;8.20;;;24.60;99.90;;;;;;5075706;28;20403;-80
2022/06/21 11:46:03;;;;;;;12.30;7.55;;;24.20;99.90;;;;;;5075500;28;20051;-80
2022/06/21 11:48:33;;;;;;;15.80;7.38;;;24.10;99.90;;;;;;5075956;28;20183;-80
2022/06/21 11:51:10;;;;;;;15.00;7.97;;;23.80;99.90;;;;;;5075900;28;20091;-79
2022/06/21 11:53:44;;;;;;;13.85;8.50;;;23.70;99.90;;;;;;5075895;28;20040;-79
2022/06/21 11:56:20;;;;;;;14.88;7.55;;;23.70;99.90;;;;;;5075843;28;20053;-79
2022/06/21 11:59:40;;;;;;;11.98;7.18;;;23.70;99.90;;;;;;5057563;28;20044;-80
2022/06/21 12:02:44;;;;;;;13.48;7.13;;;23.70;99.90;;;;;;5032497;28;20084;-79
2022/06/21 12:05:30;;;;;;;13.32;6.93;;;24.00;99.90;;;;;;5053767;28;20064;-80
2022/06/21 12:08:02;;;;;;;14.10;7.40;;;23.80;99.90;;;;;;5057662;28;20049;-79
2022/06/21 12:10:33;;;;;;;15.05;6.75;;;23.90;99.90;;;;;;5075549;28;20049;-80
2022/06/21 12:13:39;;;;;;;15.30;6.78;;;23.80;99.90;;;;;;5075599;28;20076;-79
2022/06/21 12:16:39;;;;;;;14.60;7.85;;;23.70;99.90;;;;;;5075318;28;20044;-80
2022/06/21 12:19:16;;;;;;;13.35;7.07;;;23.80;99.90;;;;;;5075192;28;20044;-79
2022/06/21 12:21:58;;;;;;;15.68;7.35;;;23.70;99.90;;;;;;5075358;28;20044;-80
2022/06/21 12:24:26;;;;;;;20.90;7.45;;;23.90;99.90;;;;;;5057490;28;20084;-80
2022/06/21 12:26:53;;;;;;;18.88;7.03;;;23.80;99.90;;;;;;5075117;28;20036;-80
2022/06/21 12:29:20;;;;;;;16.55;7.47;;;24.00;99.90;;;;;;5074949;28;20049;-80
2022/06/21 12:31:50;;;;;;;16.33;6.93;;;23.90;99.90;;;;;;5056965;28;20446;-80
2022/06/21 12:34:41;;;;;;;19.25;7.88;;;23.80;99.90;;;;;;5075584;28;20056;-80
2022/06/21 12:37:15;;;;;;;20.08;7.35;;;23.70;99.90;;;;;;5057114;28;20533;-79
2022/06/21 12:39:58;;;;;;;17.15;7.18;;;23.40;99.90;;;;;;5074991;28;20036;-79
2022/06/21 12:42:36;;;;;;;21.90;7.45;;;23.50;99.90;;;;;;5074681;28;20542;-80
2022/06/21 12:45:11;;;;;;;18.40;7.40;;;23.50;99.90;;;;;;5053245;28;20124;-80
2022/06/21 12:47:50;;;;;;;18.98;7.60;;;23.50;99.90;;;;;;5053548;28;20404;-80
2022/06/21 12:50:25;;;;;;;17.15;7.13;;;23.40;99.90;;;;;;5053131;28;20412;-79
2022/06/21 12:52:59;;;;;;;22.48;7.38;;;23.40;99.90;;;;;;5054679;28;20052;-80
2022/06/21 12:56:02;;;;;;;15.75;6.68;;;23.40;99.90;;;;;;5054746;28;20175;-80
2022/06/21 12:58:46;;;;;;;22.75;7.63;;;23.50;99.90;;;;;;5052281;28;20053;-79
2022/06/21 13:01:21;;;;;;;21.65;7.65;;;23.30;99.90;;;;;;5054639;28;20045;-79
2022/06/21 13:03:49;;;;;;;20.73;8.35;;;23.30;99.90;;;;;;5054463;28;20048;-80
2022/06/21 13:06:43;;;;;;;18.65;8.13;;;23.40;99.90;;;;;;5053203;28;20485;-80
2022/06/21 13:09:12;;;;;;;18.13;6.82;;;23.40;99.90;;;;;;5054428;28;20056;-80
2022/06/21 13:12:10;;;;;;;17.55;7.00;;;23.40;99.90;;;;;;5054324;28;20069;-80
2022/06/21 13:14:51;;;;;;;18.23;7.05;;;23.40;99.90;;;;;;5053061;28;20047;-80
2022/06/21 13:17:43;;;;;;;17.70;7.07;;;23.50;99.90;;;;;;5053569;28;20041;-80
2022/06/21 13:20:33;;;;;;;19.42;7.55;;;23.30;99.90;;;;;;5052734;28;20386;-80
2022/06/21 13:23:13;;;;;;;18.02;7.38;;;23.40;99.90;;;;;;5052686;28;20056;-80
2022/06/21 13:25:42;;;;;;;18.10;7.38;;;23.50;99.90;;;;;;5052759;28;20048;-80
2022/06/21 13:28:34;;;;;;;22.45;7.57;;;23.40;99.90;;;;;;5054170;28;20047;-80
2022/06/21 13:31:16;;;;;;;17.42;8.05;;;23.30;99.90;;;;;;5053836;28;20086;-80
2022/06/21 13:34:00;;;;;;;19.00;7.03;;;23.40;99.90;;;;;;5053839;28;20045;-80
2022/06/21 13:36:31;;;;;;;19.25;7.07;;;23.50;99.90;;;;;;5052810;28;20041;-80
2022/06/21 13:39:11;;;;;;;19.50;6.60;;;23.40;99.90;;;;;;5053985;28;20041;-80
2022/06/21 13:44:58;;;;;;;18.42;7.20;;;23.40;99.90;;;;;;5065129;28;20067;-80
2022/06/21 13:47:41;;;;;;;22.02;8.13;;;23.70;99.90;;;;;;5073697;28;20537;-80
2022/06/21 13:50:12;;;;;;;16.95;7.35;;;23.70;99.90;;;;;;5073418;28;20490;-80